Time;durP1;ratioP1;P1;durP2;ratioP2;P2;SDS_P1;SDS_P2;PMS_P1;PMS_P2;Temp;Humidity;BMP_temperature;BMP_pressure;BME280_temperature;BME280_humidity;BME280_pressure;Samples;Min_cycle;Max_cycle;Signal;HPM_P1;HPM_P2
2022/06/12 00:00:52;;;;;;;5.65;3.10;;;;;;;22.93;50.60;102367.91;5075856;28;20037;-58
2022/06/12 00:03:20;;;;;;;5.85;3.33;;;;;;;22.94;50.34;102372.28;5078968;28;20513;-55
2022/06/12 00:05:49;;;;;;;6.53;3.47;;;;;;;22.92;50.35;102368.06;5078027;28;20044;-56
2022/06/12 00:08:17;;;;;;;6.03;2.80;;;;;;;22.92;50.21;102370.75;5076714;28;20036;-56
2022/06/12 00:10:47;;;;;;;5.07;3.25;;;;;;;22.90;50.33;102362.75;5076644;28;20063;-56
2022/06/12 00:13:17;;;;;;;7.00;3.40;;;;;;;22.89;51.01;102371.88;5078592;28;20115;-57
2022/06/12 00:15:44;;;;;;;4.63;3.17;;;;;;;22.88;50.60;102368.31;5076708;28;20052;-56
2022/06/12 00:18:10;;;;;;;5.60;3.33;;;;;;;22.88;50.91;102370.16;5081899;28;20044;-57
2022/06/12 00:20:38;;;;;;;5.72;3.20;;;;;;;22.86;50.74;102361.34;5075466;28;20051;-56
2022/06/12 00:23:11;;;;;;;8.90;3.13;;;;;;;22.84;51.15;102360.66;5074946;28;20044;-57
2022/06/12 00:25:38;;;;;;;5.82;3.08;;;;;;;22.83;50.85;102365.19;5077967;28;20048;-57
2022/06/12 00:28:05;;;;;;;6.68;3.63;;;;;;;22.83;50.82;102358.94;5075125;28;20056;-57
2022/06/12 00:30:33;;;;;;;5.70;2.85;;;;;;;22.82;51.02;102359.94;5080418;28;20097;-57
2022/06/12 00:33:01;;;;;;;5.82;2.90;;;;;;;22.81;51.00;102348.28;5078530;28;20060;-57
2022/06/12 00:35:32;;;;;;;5.30;3.20;;;;;;;22.81;51.14;102356.38;5077355;28;20324;-57
2022/06/12 00:37:59;;;;;;;6.95;3.15;;;;;;;22.80;50.91;102353.84;5078638;28;20055;-57
2022/06/12 00:40:26;;;;;;;12.07;3.10;;;;;;;22.78;51.15;102351.28;5076564;28;20438;-57
2022/06/12 00:42:56;;;;;;;4.75;2.88;;;;;;;22.77;51.23;102352.28;5077028;28;20047;-57
2022/06/12 00:45:51;;;;;;;5.43;2.75;;;;;;;22.76;51.44;102349.72;5077431;28;20324;-57
2022/06/12 00:48:24;;;;;;;4.60;2.63;;;;;;;22.75;51.07;102353.41;5077602;28;20117;-57
2022/06/12 00:51:01;;;;;;;;;;;;;;;22.73;51.51;102347.31;5079393;28;20047;-57
2022/06/12 00:53:32;;;;;;;4.22;2.75;;;;;;;22.76;51.09;102344.31;5076385;28;20189;-57
2022/06/12 00:56:14;;;;;;;4.38;2.53;;;;;;;22.75;51.26;102348.00;5076043;28;20143;-58
2022/06/12 00:58:51;;;;;;;9.18;2.92;;;;;;;22.73;51.28;102350.88;5077310;28;20052;-57
2022/06/12 01:01:22;;;;;;;3.88;2.45;;;;;;;22.72;51.09;102353.72;5078200;28;20074;-57
2022/06/12 01:06:34;;;;;;;7.45;2.92;;;;;;;22.70;51.17;102350.31;5073250;28;20039;-58
2022/06/12 01:09:13;;;;;;;4.93;2.80;;;;;;;22.68;51.60;102347.78;5078132;28;20625;-57
2022/06/12 01:11:44;;;;;;;5.00;2.65;;;;;;;22.66;51.42;102350.59;5079793;28;20058;-57
2022/06/12 01:14:14;;;;;;;4.22;2.30;;;;;;;22.66;51.71;102345.19;5079003;28;20476;-58
2022/06/12 01:16:45;;;;;;;4.85;2.65;;;;;;;22.65;51.68;102348.91;5080293;28;20080;-57
2022/06/12 01:19:32;;;;;;;4.90;2.58;;;;;;;22.64;51.52;102352.63;5076649;28;20834;-56
2022/06/12 01:22:23;;;;;;;5.97;3.17;;;;;;;22.62;51.56;102338.38;5075393;28;20044;-57
2022/06/12 01:25:01;;;;;;;5.35;2.58;;;;;;;22.64;51.83;102351.75;5078379;28;20036;-57
2022/06/12 01:27:37;;;;;;;5.30;2.42;;;;;;;22.60;51.72;102351.19;5074319;28;20055;-57
2022/06/12 01:30:23;;;;;;;4.47;2.30;;;;;;;22.60;51.64;102343.09;5076942;28;20073;-56
2022/06/12 01:33:08;;;;;;;6.78;2.40;;;;;;;22.61;51.69;102346.66;5079652;28;20052;-56
2022/06/12 01:36:12;;;;;;;4.88;2.47;;;;;;;22.58;51.67;102339.66;5080271;28;20052;-57
2022/06/12 01:38:46;;;;;;;4.25;2.38;;;;;;;22.58;51.64;102347.78;5080822;28;20050;-56
2022/06/12 01:41:56;;;;;;;5.10;2.30;;;;;;;22.56;51.83;102343.53;5081888;28;20044;-56
2022/06/12 01:44:35;;;;;;;6.22;2.50;;;;;;;22.56;51.79;102351.66;5043618;28;20044;-56
2022/06/12 01:47:53;;;;;;;5.13;2.45;;;;;;;22.52;51.72;102344.84;5080359;28;20412;-56
2022/06/12 01:50:40;;;;;;;5.07;2.35;;;;;;;22.55;51.83;102339.13;5049987;28;20039;-56
2022/06/12 01:53:23;;;;;;;4.60;2.42;;;;;;;22.54;51.97;102348.22;5080496;28;20131;-56
2022/06/12 01:56:00;;;;;;;4.63;2.40;;;;;;;22.51;51.87;102343.97;5081660;28;20170;-57
2022/06/12 01:58:32;;;;;;;5.18;2.08;;;;;;;22.52;51.99;102336.72;5079264;28;20488;-56
2022/06/12 02:01:08;;;;;;;4.13;1.92;;;;;;;22.50;51.82;102334.16;5075419;28;20044;-57
2022/06/12 02:03:47;;;;;;;4.88;2.35;;;;;;;22.49;52.21;102339.72;5080278;28;20059;-57
2022/06/12 02:06:21;;;;;;;5.38;2.00;;;;;;;22.49;51.90;102345.97;5077156;28;20043;-56
2022/06/12 02:08:56;;;;;;;5.22;2.40;;;;;;;22.48;51.94;102346.97;5078809;28;20052;-56
2022/06/12 02:14:25;;;;;;;5.03;2.15;;;;;;;22.48;52.02;102340.72;5080839;28;20042;-56
2022/06/12 02:16:55;;;;;;;4.53;2.42;;;;;;;22.45;52.34;102336.47;5082234;28;20048;-56
2022/06/12 02:19:27;;;;;;;4.18;2.47;;;;;;;22.46;52.13;102342.72;5075765;28;20133;-56
2022/06/12 02:22:01;;;;;;;4.03;2.13;;;;;;;22.43;52.38;102335.72;5081131;28;20045;-56
2022/06/12 02:24:37;;;;;;;4.05;2.22;;;;;;;22.44;52.12;102337.47;5079148;28;20045;-57
2022/06/12 02:27:09;;;;;;;4.85;2.20;;;;;;;22.42;52.36;102320.53;5080693;28;20044;-56
2022/06/12 02:29:53;;;;;;;4.60;2.05;;;;;;;22.41;52.20;102329.63;5080581;28;20050;-56
2022/06/12 02:32:22;;;;;;;;;;;;;;;22.39;52.27;102326.22;5079870;28;20071;-57
2022/06/12 02:34:55;;;;;;;4.53;2.13;;;;;;;22.40;52.42;102326.09;5078086;28;19938;-57
2022/06/12 02:37:33;;;;;;;5.15;2.05;;;;;;;22.38;52.26;102321.81;5078746;28;20036;-56
2022/06/12 02:40:06;;;;;;;3.67;2.08;;;;;;;22.38;52.65;102325.38;5076582;28;20046;-56
2022/06/12 02:42:38;;;;;;;3.95;1.92;;;;;;;22.37;52.39;102320.97;5080882;28;20424;-56
2022/06/12 02:45:11;;;;;;;4.05;2.28;;;;;;;22.37;52.55;102325.53;5080383;28;20044;-56
2022/06/12 02:47:41;;;;;;;4.47;2.17;;;;;;;22.36;52.68;102329.22;5076491;28;20036;-56
2022/06/12 02:50:11;;;;;;;3.50;1.88;;;;;;;22.34;52.61;102323.97;5077296;28;20354;-56
2022/06/12 02:52:41;;;;;;;7.75;2.42;;;;;;;22.34;52.46;102336.63;5077586;28;20250;-56
2022/06/12 02:55:19;;;;;;;3.50;1.92;;;;;;;22.33;52.35;102326.81;5081820;28;20036;-57
2022/06/12 02:57:53;;;;;;;4.55;2.10;;;;;;;22.31;52.86;102332.38;5080512;28;20119;-57
2022/06/12 03:00:32;;;;;;;5.05;2.67;;;;;;;22.31;52.51;102329.69;5078913;28;20136;-57
2022/06/12 03:03:04;;;;;;;4.97;1.88;;;;;;;22.31;52.91;102328.81;5076824;28;20044;-57
2022/06/12 03:05:36;;;;;;;6.90;2.47;;;;;;;22.29;52.40;102326.25;5077353;28;20953;-58
2022/06/12 03:08:14;;;;;;;4.60;2.63;;;;;;;22.30;52.96;102327.09;5079377;28;20487;-57
2022/06/12 03:10:53;;;;;;;4.10;2.20;;;;;;;22.29;52.79;102320.00;5076860;28;20424;-56
2022/06/12 03:13:21;;;;;;;4.00;2.13;;;;;;;22.29;52.78;102312.75;5077711;28;20083;-57
2022/06/12 03:16:08;;;;;;;4.10;1.67;;;;;;;22.29;52.91;102317.31;5080705;28;20052;-57
2022/06/12 03:18:38;;;;;;;4.40;2.00;;;;;;;22.28;52.69;102312.91;5078587;28;20166;-57
2022/06/12 03:21:22;;;;;;;7.07;2.73;;;;;;;22.28;52.92;102315.59;5076573;28;20063;-57
2022/06/12 03:24:21;;;;;;;4.38;2.00;;;;;;;22.27;53.04;102316.59;5078569;28;20040;-56
2022/06/12 03:27:04;;;;;;;4.70;2.17;;;;;;;22.27;52.68;102322.88;5080275;28;20077;-57
2022/06/12 03:29:54;;;;;;;3.97;2.00;;;;;;;22.26;52.83;102323.00;5077296;28;20044;-56
2022/06/12 03:32:29;;;;;;;4.78;1.98;;;;;;;22.26;52.85;102334.63;5077981;28;20323;-57
2022/06/12 03:35:08;;;;;;;5.65;1.92;;;;;;;22.25;52.81;102321.28;5078612;28;20435;-57
2022/06/12 03:37:56;;;;;;;5.50;1.80;;;;;;;22.24;52.94;102325.00;5077773;28;20138;-57
2022/06/12 03:40:45;;;;;;;6.78;2.55;;;;;;;22.24;52.89;102333.09;5078004;28;20105;-57
2022/06/12 03:43:28;;;;;;;3.20;1.80;;;;;;;22.23;52.86;102326.84;5075550;28;20052;-57
2022/06/12 03:46:06;;;;;;;4.97;1.67;;;;;;;22.22;52.80;102333.22;5076237;28;20052;-57
2022/06/12 03:48:42;;;;;;;4.60;2.10;;;;;;;22.21;52.93;102334.22;5082954;28;20075;-57
2022/06/12 03:51:14;;;;;;;2.90;1.60;;;;;;;22.22;53.03;102340.47;5076892;28;20040;-57
2022/06/12 03:54:07;;;;;;;4.18;1.55;;;;;;;22.18;52.69;102340.75;5075323;28;20094;-57
2022/06/12 03:59:48;;;;;;;4.70;2.13;;;;;;;22.18;52.84;102339.91;5076757;28;20528;-57
2022/06/12 04:02:19;;;;;;;4.30;1.77;;;;;;;22.17;53.03;102335.53;5079106;28;20335;-56
2022/06/12 04:04:48;;;;;;;5.50;1.60;;;;;;;22.17;53.09;102330.97;5077758;28;20052;-56
2022/06/12 04:07:17;;;;;;;6.22;1.90;;;;;;;22.17;52.91;102335.53;5077106;28;20036;-56
2022/06/12 04:09:48;;;;;;;4.80;1.60;;;;;;;22.16;53.00;102340.06;5074477;28;20051;-56
2022/06/12 04:12:28;;;;;;;3.35;1.52;;;;;;;22.16;52.95;102334.69;5077701;28;20045;-56
2022/06/12 04:15:17;;;;;;;8.93;1.90;;;;;;;22.15;53.26;102330.28;5074172;28;20044;-56
2022/06/12 04:17:45;;;;;;;6.30;2.03;;;;;;;22.17;52.97;102333.66;5077778;28;20044;-56
2022/06/12 04:20:21;;;;;;;5.43;1.67;;;;;;;22.17;53.08;102330.13;5076534;28;20330;-57
2022/06/12 04:22:54;;;;;;;4.35;1.60;;;;;;;22.16;52.83;102340.06;5076144;28;20139;-57
2022/06/12 04:25:30;;;;;;;3.65;2.00;;;;;;;22.16;53.10;102337.38;5077241;28;20044;-57
2022/06/12 04:27:57;;;;;;;4.72;2.03;;;;;;;22.16;53.13;102336.53;5076550;28;20043;-57
2022/06/12 04:30:31;;;;;;;3.30;1.63;;;;;;;22.16;53.14;102340.06;5075657;28;20062;-57
2022/06/12 04:33:22;;;;;;;4.60;1.48;;;;;;;22.15;53.08;102332.97;5076665;28;20055;-57
2022/06/12 04:35:53;;;;;;;3.97;1.80;;;;;;;22.16;53.15;102341.94;5076705;28;20530;-57
2022/06/12 04:38:20;;;;;;;3.53;1.67;;;;;;;22.15;53.25;102341.09;5076835;28;20046;-57
2022/06/12 04:40:47;;;;;;;6.82;2.10;;;;;;;22.16;52.95;102341.94;5082009;28;20416;-57
2022/06/12 04:43:14;;;;;;;4.78;1.42;;;;;;;22.16;52.95;102342.78;5076819;28;20068;-57
2022/06/12 04:45:41;;;;;;;4.60;1.65;;;;;;;22.16;52.96;102344.63;5079249;28;20056;-57
2022/06/12 04:48:14;;;;;;;5.00;1.73;;;;;;;22.17;52.94;102347.16;5075928;28;20036;-57
2022/06/12 04:50:42;;;;;;;3.53;1.90;;;;;;;22.17;52.87;102349.03;5074144;28;20062;-57
2022/06/12 04:53:08;;;;;;;5.65;2.00;;;;;;;22.18;52.81;102346.16;5071858;28;20047;-57
2022/06/12 04:55:35;;;;;;;4.35;1.40;;;;;;;22.21;52.79;102336.94;5074246;28;20396;-57
2022/06/12 04:58:02;;;;;;;4.38;1.83;;;;;;;22.23;52.83;102339.47;5082693;28;20335;-57
2022/06/12 05:00:29;;;;;;;5.07;1.80;;;;;;;22.24;53.02;102343.91;5076965;28;20082;-57
2022/06/12 05:02:55;;;;;;;5.47;1.50;;;;;;;22.28;52.32;102353.44;5075328;28;20426;-57
2022/06/12 05:05:22;;;;;;;6.57;2.00;;;;;;;22.28;52.83;102346.16;5072554;28;20041;-56
2022/06/12 05:07:49;;;;;;;5.25;1.80;;;;;;;22.30;52.71;102341.47;5072505;28;20053;-57
2022/06/12 05:10:15;;;;;;;4.07;2.03;;;;;;;22.33;52.63;102343.03;5073653;28;20040;-57
2022/06/12 05:12:42;;;;;;;4.68;1.80;;;;;;;22.36;52.64;102337.34;5071549;28;20334;-57
2022/06/12 05:15:12;;;;;;;4.35;2.03;;;;;;;22.37;52.55;102339.03;5080136;28;20067;-57
2022/06/12 05:17:42;;;;;;;5.13;1.63;;;;;;;22.39;52.39;102346.00;5076626;28;20043;-57
2022/06/12 05:20:16;;;;;;;5.63;1.60;;;;;;;22.41;52.32;102345.84;5078192;28;20055;-57
2022/06/12 05:22:43;;;;;;;4.65;2.05;;;;;;;22.42;52.38;102343.00;5070796;28;20139;-56
2022/06/12 05:25:10;;;;;;;4.30;1.77;;;;;;;22.42;52.38;102345.69;5076659;28;20048;-56
2022/06/12 05:27:37;;;;;;;4.90;1.67;;;;;;;22.44;52.38;102361.78;5077264;28;20358;-56
2022/06/12 05:30:06;;;;;;;6.30;1.70;;;;;;;22.44;52.57;102353.66;5077487;28;20050;-56
2022/06/12 05:32:33;;;;;;;4.22;1.70;;;;;;;22.42;52.31;102356.50;5073500;28;20128;-57
2022/06/12 05:35:00;;;;;;;3.25;1.85;;;;;;;22.41;52.60;102357.50;5078559;28;20476;-57
2022/06/12 05:37:26;;;;;;;6.72;1.88;;;;;;;22.41;52.41;102352.09;5078192;28;20762;-57
2022/06/12 05:39:53;;;;;;;4.35;1.77;;;;;;;22.41;51.98;102360.22;5074446;28;20054;-57
2022/06/12 05:42:21;;;;;;;2.88;1.55;;;;;;;22.40;53.11;102363.91;5074685;28;20055;-56
2022/06/12 05:44:47;;;;;;;3.88;1.58;;;;;;;22.41;52.42;102359.34;5077405;28;20060;-56
2022/06/12 05:47:14;;;;;;;6.75;1.73;;;;;;;22.40;52.79;102363.91;5079898;28;20047;-56
2022/06/12 05:49:40;;;;;;;4.97;1.83;;;;;;;22.40;52.63;102347.69;5078668;28;20058;-57
2022/06/12 05:52:07;;;;;;;4.30;1.70;;;;;;;22.40;52.66;102357.66;5074547;28;20602;-56
2022/06/12 05:54:33;;;;;;;5.32;1.75;;;;;;;22.38;52.84;102355.09;5081163;28;20086;-56
2022/06/12 05:57:00;;;;;;;4.00;1.42;;;;;;;22.40;52.71;102361.22;5075586;28;20036;-56
2022/06/12 05:59:27;;;;;;;3.15;1.40;;;;;;;22.41;52.65;102367.47;5072662;28;20048;-56
2022/06/12 06:01:53;;;;;;;6.43;1.83;;;;;;;22.41;52.80;102365.63;5078565;28;20055;-56
2022/06/12 06:04:20;;;;;;;5.07;1.50;;;;;;;22.42;52.72;102374.56;5076144;28;20465;-57
2022/06/12 06:06:51;;;;;;;6.22;1.42;;;;;;;22.41;52.77;102381.81;5077100;28;20802;-57
2022/06/12 06:09:19;;;;;;;3.95;1.50;;;;;;;22.42;52.74;102375.41;5075874;28;20044;-58
2022/06/12 06:11:46;;;;;;;3.72;1.38;;;;;;;22.45;52.64;102378.84;5078685;28;20040;-57
2022/06/12 06:14:13;;;;;;;6.03;1.50;;;;;;;22.46;52.72;102369.72;5078131;28;20051;-57
2022/06/12 06:16:39;;;;;;;3.40;1.30;;;;;;;22.46;52.65;102375.97;5081649;28;20048;-57
2022/06/12 06:19:07;;;;;;;5.15;1.60;;;;;;;22.48;52.41;102375.84;5082334;28;20044;-58
2022/06/12 06:21:34;;;;;;;5.35;1.75;;;;;;;22.46;52.89;102369.72;5079859;28;20430;-57
2022/06/12 06:24:01;;;;;;;4.65;1.65;;;;;;;22.47;52.59;102380.38;5079122;28;20048;-57
2022/06/12 06:26:27;;;;;;;3.38;1.25;;;;;;;22.48;52.61;102383.97;5077138;28;20048;-57
2022/06/12 06:28:56;;;;;;;5.22;1.40;;;;;;;22.48;52.48;102395.63;5082372;28;20167;-58
2022/06/12 06:31:25;;;;;;;4.20;1.52;;;;;;;22.49;52.57;102391.06;5082255;28;20059;-58
2022/06/12 06:33:51;;;;;;;2.92;1.30;;;;;;;22.49;52.93;102391.91;5081183;28;20117;-57
2022/06/12 06:36:19;;;;;;;4.45;1.33;;;;;;;22.50;52.64;102388.19;5083233;28;20143;-57
2022/06/12 06:38:46;;;;;;;2.47;1.20;;;;;;;22.54;52.56;102399.56;5077310;28;20128;-57
2022/06/12 06:41:14;;;;;;;3.88;1.48;;;;;;;22.51;52.54;102384.50;5075424;28;20040;-57
2022/06/12 06:46:26;;;;;;;2.53;1.30;;;;;;;22.53;52.65;102397.88;5078733;28;20050;-57
2022/06/12 06:48:53;;;;;;;4.20;1.45;;;;;;;22.54;52.40;102400.41;5073140;28;20032;-57
2022/06/12 06:51:20;;;;;;;3.45;1.73;;;;;;;22.54;52.41;102391.47;5074437;28;20064;-58
2022/06/12 06:53:47;;;;;;;4.03;1.25;;;;;;;22.55;52.38;102399.44;5078406;28;20037;-57
2022/06/12 06:56:13;;;;;;;2.83;1.42;;;;;;;22.54;52.34;102399.56;5079559;28;20041;-58
2022/06/12 06:58:40;;;;;;;4.00;1.55;;;;;;;22.56;52.12;102408.41;5079892;28;20151;-57
2022/06/12 07:01:07;;;;;;;5.43;1.40;;;;;;;22.56;52.71;102413.81;5078443;28;20803;-57
2022/06/12 07:03:40;;;;;;;7.05;1.98;;;;;;;22.55;52.20;102403.97;5078719;28;20056;-57
2022/06/12 07:06:10;;;;;;;6.30;1.77;;;;;;;22.56;52.17;102405.69;5078570;28;20049;-57
2022/06/12 07:08:37;;;;;;;4.20;1.92;;;;;;;22.57;52.25;102410.09;5081084;28;20046;-57
2022/06/12 07:11:04;;;;;;;4.38;1.40;;;;;;;22.57;52.17;102412.81;5078622;28;20044;-57
2022/06/12 07:13:30;;;;;;;5.32;1.45;;;;;;;22.58;52.45;102417.19;5072213;28;20335;-57
2022/06/12 07:15:57;;;;;;;4.30;1.48;;;;;;;22.58;52.09;102418.03;5073877;28;20052;-57
2022/06/12 07:18:24;;;;;;;4.13;1.58;;;;;;;22.59;52.05;102422.47;5072517;28;20118;-58
2022/06/12 07:20:56;;;;;;;7.15;1.50;;;;;;;22.58;52.27;102420.75;5075968;28;20347;-57
2022/06/12 07:23:24;;;;;;;6.05;1.83;;;;;;;22.60;52.37;102420.63;5072632;28;20051;-57
2022/06/12 07:25:58;;;;;;;4.95;1.50;;;;;;;22.60;52.47;102413.38;5075615;28;20424;-58
2022/06/12 07:28:26;;;;;;;6.10;2.38;;;;;;;22.60;52.10;102412.53;5070762;28;20050;-57
2022/06/12 07:30:52;;;;;;;8.00;2.53;;;;;;;22.61;52.22;102411.50;5072325;28;20162;-58
2022/06/12 07:33:20;;;;;;;5.68;2.50;;;;;;;22.60;52.34;102413.38;5076671;28;20049;-57
2022/06/12 07:35:47;;;;;;;7.43;2.90;;;;;;;22.61;52.12;102411.50;5076568;28;20050;-57
2022/06/12 07:38:17;;;;;;;10.48;3.30;;;;;;;22.62;52.06;102418.63;5077629;28;20047;-57
2022/06/12 07:40:49;;;;;;;8.48;3.92;;;;;;;22.62;52.03;102414.06;5079440;28;20048;-57
2022/06/12 07:43:15;;;;;;;12.70;4.72;;;;;;;22.63;52.30;102421.19;5074959;28;20093;-58
2022/06/12 07:45:43;;;;;;;8.68;3.50;;;;;;;22.64;52.32;102419.34;5077823;28;20052;-57
2022/06/12 07:48:11;;;;;;;8.35;4.13;;;;;;;22.64;51.73;102414.78;5079724;28;20352;-57
2022/06/12 07:50:41;;;;;;;9.60;4.00;;;;;;;22.64;52.13;102416.63;5077124;28;20078;-57
2022/06/12 07:53:08;;;;;;;7.68;4.07;;;;;;;22.66;51.93;102414.63;5075820;28;20044;-58
2022/06/12 07:55:35;;;;;;;7.40;4.15;;;;;;;22.66;51.92;102415.47;5080898;28;20063;-57
2022/06/12 07:58:01;;;;;;;9.23;4.05;;;;;;;22.67;51.84;102416.31;5074183;28;20048;-57
2022/06/12 08:00:28;;;;;;;8.80;4.57;;;;;;;22.67;51.50;102422.59;5076867;28;20055;-57
2022/06/12 08:02:55;;;;;;;10.55;4.60;;;;;;;22.69;51.26;102413.47;5075444;28;20040;-57
2022/06/12 08:05:22;;;;;;;9.57;4.60;;;;;;;22.69;51.79;102408.06;5074113;28;20506;-57
2022/06/12 08:07:49;;;;;;;10.52;4.82;;;;;;;22.69;51.53;102418.88;5075203;28;20432;-57
2022/06/12 08:10:17;;;;;;;11.52;4.30;;;;;;;22.71;51.38;102419.59;5075538;28;20375;-56
2022/06/12 08:12:45;;;;;;;9.10;4.50;;;;;;;22.72;51.38;102419.47;5073537;28;20054;-57
2022/06/12 08:15:19;;;;;;;6.55;4.00;;;;;;;22.72;51.71;102413.19;5072237;28;20072;-57
2022/06/12 08:17:46;;;;;;;8.75;3.70;;;;;;;22.73;51.64;102404.09;5072612;28;20051;-56
2022/06/12 08:20:25;;;;;;;10.00;4.30;;;;;;;22.74;51.28;102420.16;5074447;28;20036;-56
2022/06/12 08:22:55;;;;;;;8.60;3.80;;;;;;;22.75;51.20;102418.28;5072027;28;20135;-56
2022/06/12 08:25:22;;;;;;;9.90;4.15;;;;;;;22.75;51.26;102411.03;5074474;28;20054;-56
2022/06/12 08:27:49;;;;;;;10.98;4.28;;;;;;;22.76;51.41;102414.59;5073622;28;20117;-57
2022/06/12 08:30:16;;;;;;;6.45;3.70;;;;;;;22.76;51.24;102407.34;5075433;28;20036;-56
2022/06/12 08:32:46;;;;;;;12.75;4.40;;;;;;;22.77;51.31;102413.59;5074113;28;20447;-56
2022/06/12 08:35:18;;;;;;;9.20;3.88;;;;;;;22.77;51.34;102409.03;5076813;28;20040;-56
2022/06/12 08:37:45;;;;;;;10.00;4.35;;;;;;;22.79;51.39;102414.28;5075143;28;20041;-57
2022/06/12 08:40:38;;;;;;;8.43;3.90;;;;;;;22.79;51.29;102412.44;5075151;28;20046;-56
2022/06/12 08:43:20;;;;;;;11.63;4.38;;;;;;;22.80;51.19;102407.91;5059149;28;20047;-57
2022/06/12 08:45:50;;;;;;;6.53;3.40;;;;;;;22.80;51.27;102416.88;5075747;28;20441;-57
2022/06/12 08:48:37;;;;;;;7.38;3.40;;;;;;;22.81;51.19;102404.19;5075675;28;20059;-57
2022/06/12 08:51:16;;;;;;;9.18;3.72;;;;;;;22.81;51.18;102402.34;5075324;28;20342;-56
2022/06/12 08:54:00;;;;;;;6.95;3.53;;;;;;;22.81;50.99;102405.03;5073493;28;20078;-56
2022/06/12 08:56:39;;;;;;;6.60;2.97;;;;;;;22.83;51.41;102399.47;5075157;28;20044;-57
2022/06/12 08:59:17;;;;;;;6.15;3.20;;;;;;;22.83;51.15;102400.34;5076646;28;20035;-56
2022/06/12 09:01:44;;;;;;;7.53;3.53;;;;;;;22.84;51.16;102393.09;5077336;28;20044;-57
2022/06/12 09:04:14;;;;;;;9.73;3.20;;;;;;;22.85;51.13;102384.81;5075657;28;20044;-57
2022/06/12 09:06:57;;;;;;;7.50;3.60;;;;;;;22.86;51.27;102391.09;5072443;28;20054;-57
2022/06/12 09:09:43;;;;;;;6.13;3.42;;;;;;;22.88;51.08;102389.09;5072300;28;20350;-56
2022/06/12 09:12:47;;;;;;;9.18;3.92;;;;;;;22.89;51.33;102386.22;5074159;28;20062;-57
2022/06/12 09:16:02;;;;;;;8.25;3.28;;;;;;;22.91;50.88;102391.50;5076109;28;20036;-56
2022/06/12 09:18:37;;;;;;;8.13;3.08;;;;;;;22.93;51.05;102388.69;5058397;28;20454;-56
2022/06/12 09:21:22;;;;;;;7.45;3.08;;;;;;;22.94;51.07;102391.22;5073323;28;20057;-57
2022/06/12 09:23:52;;;;;;;9.43;3.00;;;;;;;22.96;50.67;102391.94;5076001;28;20047;-57
2022/06/12 09:26:33;;;;;;;7.97;2.95;;;;;;;22.96;50.42;102389.25;5076070;28;20145;-56
2022/06/12 09:29:27;;;;;;;5.93;3.15;;;;;;;22.99;50.54;102388.06;5076471;28;20126;-57
2022/06/12 09:32:07;;;;;;;6.13;3.08;;;;;;;23.01;50.80;102380.69;5075448;28;20048;-57
2022/06/12 09:34:48;;;;;;;9.95;2.72;;;;;;;23.03;50.36;102389.47;5078132;28;21079;-57
2022/06/12 09:40:24;;;;;;;4.53;2.75;;;;;;;23.07;50.44;102388.19;5072187;28;20135;-57
2022/06/12 09:43:20;;;;;;;8.27;2.90;;;;;;;23.08;50.51;102388.03;5077090;28;20044;-57
2022/06/12 09:45:49;;;;;;;6.03;2.67;;;;;;;23.10;50.66;102388.72;5075159;28;20083;-57
2022/06/12 09:48:47;;;;;;;6.60;2.72;;;;;;;23.11;50.56;102384.16;5076355;28;20147;-57
2022/06/12 09:51:47;;;;;;;5.50;2.72;;;;;;;23.13;50.36;102385.72;5072588;28;20044;-57
2022/06/12 09:54:32;;;;;;;7.60;2.55;;;;;;;23.15;49.98;102389.13;5076923;28;20504;-57
2022/06/12 09:57:07;;;;;;;3.92;2.47;;;;;;;23.17;50.25;102396.25;5080861;28;20036;-57
2022/06/12 09:59:40;;;;;;;5.97;2.60;;;;;;;23.19;49.90;102394.25;5081092;28;20045;-56
2022/06/12 10:02:18;;;;;;;7.05;2.80;;;;;;;23.19;50.11;102388.84;5076619;28;20319;-57
2022/06/12 10:04:49;;;;;;;6.57;2.60;;;;;;;23.20;49.66;102388.69;5077494;28;20418;-56
2022/06/12 10:07:24;;;;;;;5.03;2.42;;;;;;;23.22;49.61;102393.94;5076873;28;20048;-56
2022/06/12 10:10:01;;;;;;;5.78;2.83;;;;;;;23.22;50.17;102400.22;5075304;28;20048;-57
2022/06/12 10:12:36;;;;;;;5.35;2.40;;;;;;;23.23;49.92;102410.03;5081084;28;20597;-58
2022/06/12 10:15:13;;;;;;;6.40;2.42;;;;;;;23.24;49.61;102389.25;5078573;28;20040;-57
2022/06/12 10:17:52;;;;;;;8.98;2.58;;;;;;;23.24;49.85;102400.91;5074624;28;20052;-58
2022/06/12 10:20:44;;;;;;;6.22;2.95;;;;;;;23.25;49.14;102399.91;5079116;28;20072;-57
2022/06/12 10:23:13;;;;;;;5.82;2.60;;;;;;;23.28;49.65;102401.47;5071773;28;20123;-57
2022/06/12 10:25:48;;;;;;;5.85;2.70;;;;;;;23.29;49.58;102398.59;5077030;28;20052;-57
2022/06/12 10:28:15;;;;;;;7.13;2.60;;;;;;;23.31;49.49;102403.84;5078993;28;20048;-57
2022/06/12 10:31:00;;;;;;;8.32;2.25;;;;;;;23.32;49.17;102400.19;5079479;28;20150;-57
2022/06/12 10:33:32;;;;;;;5.90;2.28;;;;;;;23.34;49.24;102400.84;5074401;28;20059;-57
2022/06/12 10:36:03;;;;;;;7.60;2.90;;;;;;;23.35;49.37;102394.44;5076756;28;20518;-57
2022/06/12 10:38:33;;;;;;;5.40;1.85;;;;;;;23.36;49.46;102391.59;5071774;28;20048;-56
2022/06/12 10:41:04;;;;;;;3.78;2.03;;;;;;;23.38;48.95;102391.44;5076663;28;20123;-57
2022/06/12 10:43:38;;;;;;;5.18;2.25;;;;;;;23.39;49.42;102396.69;5074739;28;20044;-56
2022/06/12 10:46:22;;;;;;;3.50;1.70;;;;;;;23.40;48.95;102394.84;5076698;28;20355;-56
2022/06/12 10:49:15;;;;;;;4.57;2.10;;;;;;;23.42;49.43;102390.13;5072891;28;20052;-57
2022/06/12 10:51:43;;;;;;;7.45;2.03;;;;;;;23.44;49.01;102392.66;5076562;28;20131;-57
2022/06/12 10:54:17;;;;;;;9.90;2.40;;;;;;;23.45;48.91;102394.41;5073857;28;20920;-58
2022/06/12 10:56:46;;;;;;;7.03;2.17;;;;;;;23.45;48.91;102397.94;5072326;28;20048;-57
2022/06/12 10:59:31;;;;;;;4.88;2.00;;;;;;;23.46;48.73;102385.28;5076821;28;20123;-57
2022/06/12 11:02:28;;;;;;;5.93;1.83;;;;;;;23.47;49.00;102382.41;5076526;28;20062;-58
2022/06/12 11:05:06;;;;;;;15.93;3.33;;;;;;;23.49;48.59;102380.41;5079796;28;20361;-57
2022/06/12 11:08:20;;;;;;;15.02;4.03;;;;;;;23.50;48.65;102387.50;5075855;28;20446;-57
2022/06/12 11:11:15;;;;;;;25.70;5.53;;;;;;;23.52;48.64;102382.81;5039727;28;20128;-57
2022/06/12 11:13:44;;;;;;;;;;;;;;;23.53;48.51;102389.91;5083082;28;20072;-57
2022/06/12 11:16:19;;;;;;;35.83;6.88;;;;;;;23.56;48.26;102381.50;5075675;28;19920;-57
2022/06/12 11:18:58;;;;;;;30.58;7.60;;;;;;;23.56;48.54;102386.06;5079277;28;20471;-57
2022/06/12 11:21:37;;;;;;;19.75;5.00;;;;;;;23.56;48.66;102380.66;5074349;28;20044;-57
2022/06/12 11:24:16;;;;;;;24.38;5.13;;;;;;;23.57;48.58;102388.63;5072052;28;20405;-57
2022/06/12 11:27:20;;;;;;;29.92;6.20;;;;;;;23.58;48.33;102390.31;5076456;28;20048;-57
2022/06/12 11:29:58;;;;;;;25.35;6.47;;;;;;;23.61;48.57;102384.59;5077710;28;20055;-57
2022/06/12 11:32:48;;;;;;;22.00;6.93;;;;;;;23.63;48.03;102392.56;5077907;28;20046;-57
2022/06/12 11:35:52;;;;;;;23.55;7.63;;;;;;;23.62;48.03;102394.41;5078613;28;20076;-57
2022/06/12 11:38:37;;;;;;;19.10;7.88;;;;;;;23.64;48.50;102389.72;5080650;28;20043;-57
2022/06/12 11:41:26;;;;;;;22.42;7.28;;;;;;;23.66;48.42;102396.84;5077467;28;20047;-57
2022/06/12 11:44:20;;;;;;;25.63;7.88;;;;;;;23.67;48.03;102387.72;5081039;28;20058;-57
2022/06/12 11:47:04;;;;;;;20.77;7.18;;;;;;;23.68;48.00;102384.00;5074919;28;20415;-57
2022/06/12 11:49:56;;;;;;;19.10;7.80;;;;;;;23.69;47.71;102389.28;5076487;28;20449;-57
2022/06/12 11:53:00;;;;;;;28.27;7.78;;;;;;;23.70;47.88;102382.84;5078109;28;20056;-57
2022/06/12 11:55:38;;;;;;;18.13;6.95;;;;;;;23.73;48.20;102384.41;5077662;28;20123;-57
2022/06/12 11:58:40;;;;;;;19.35;6.90;;;;;;;23.73;48.30;102382.53;5077707;28;20140;-56
2022/06/12 12:01:28;;;;;;;23.05;7.22;;;;;;;23.74;47.64;102376.13;5074821;28;20040;-57
2022/06/12 12:04:36;;;;;;;19.55;8.02;;;;;;;23.76;47.71;102375.94;5079218;28;20174;-57
2022/06/12 12:07:46;;;;;;;26.67;9.30;;;;;;;23.77;47.26;102372.25;5077132;28;20740;-56
2022/06/12 12:10:30;;;;;;;27.75;13.10;;;;;;;23.79;47.82;102373.78;5068395;28;20475;-57
2022/06/12 12:13:12;;;;;;;25.50;13.30;;;;;;;23.78;47.69;102369.38;5075762;28;20087;-57
2022/06/12 12:15:48;;;;;;;32.38;14.30;;;;;;;23.80;47.26;102366.50;5077982;28;20082;-56